Rockford, IL (61101)

5:44 PM CST on December 26, 2014 (GMT -0600)
Rockford Plaza | Change Station
CLOSE
Current Station
Personal Weather Station
Location: Rockford, IL
Elevation: 787 ft
Nearby Weather Stations

Elev 787 ft 42.27 °N, 89.06 °W | Updated 57 seconds ago

Mostly Cloudy
Mostly Cloudy
45.3 °F
Feels Like 45 °F
N
0.6
Wind Variable Wind from SE
Gusts 1.6 mph

Today
High -- | Low -- °F
--% Chance of Precip.
Yesterday
High -- | Low -- °F
Precip. -- in
7:24 AM 4:30 PM
Waxing Crescent, 30% visible
Pressure 30.01 in
Visibility 10.0 miles
Clouds Few 3200 ft
Mostly Cloudy 20000 ft
Mostly Cloudy 25000 ft
Windchill 45 °F
Dew Point 29 °F
Humidity 53%
Rainfall 0.00 in
Snow Depth Not available.
UV 0 out of 12
Pollen .10 out of 12
Air Quality Not available.
Flu Activity Not available.
METAR KRFD 262254Z 16005KT 10SM FEW032 BKN200 BKN250 07/03 A2999 RMK AO2 SLP161 T00720028

More Conditions Fewer Conditions

Pressure 30.01 in
Visibility 10.0 miles
Clouds Few 3200 ft
Mostly Cloudy 20000 ft
Mostly Cloudy 25000 ft
Windchill 45 °F
Dew Point 29 °F
Humidity 53%
Rainfall 0.00 in
Snow Depth Not available.
UV 0 out of 12
Pollen .10 out of 12
Air Quality Not available.
Flu Activity Not available.
METAR KRFD 262254Z 16005KT 10SM FEW032 BKN200 BKN250 07/03 A2999 RMK AO2 SLP161 T00720028

More Conditions Fewer Conditions

10-Day Weather Forecast

Almanac

Astronomy

Dec. 26, 2014 Rise Set
Actual Time
Civil Twilight
Nautical Twilight
Astronomical Twilight
Moon
Length of Visible Light
Length of Day
Tomorrow will be .
, % of the Moon is Illuminated

Today's Extremes

State Highs State Lows

Community

WunderPhotos

Upload Photos

1,780,769 photos uploaded!

WunderBlogs® & News

Nearby

Air Quality

  Air Quality AQ Index Pollutant
Not available.

Snow Depth

Station Depth Elevation

Earthquake Activity

City Distance Mag. Time & Date
Minimum magnitude displayed is 2.5.

Coastal Water Temperatures

Place Temperature

Nearby Weather Stations